Aeroporto :
LOGIN :

Iscrizione | Disclaimer

   EN    FR    IT 

 










Sommario :    VFR   VFR Marginale   IFR   IFR Intensivo   IFR Molto Intensivo
Visibilità : 
Base nubi : 
>= 8 km
>= 3000ft
5 / 8 km
1000 / 3000 ft
1500m / 5 km
500 / 1000 ft
800 / 1500m
200 / 500 ft
< 800m
< 200 ft
Simboli :   Temporali  Nebbia  Neve Forte  Precipitazioni Forti  Vento > 20 kt
SIGMETs :   Varie  Temporali  Ghiacco  Turbolenza  Onda orograficha  Ceneri Vulcaniche






- Altitudine del aeroporto : 160 ft
- Codice IATA : FMO


EDDG - Münster Osnabrück Int.

ULTIMO METAR :
  • 221550Z 16003KT 130V200 9999 FEW025 BKN036 14/11 Q1023 NOSIG

METARs OBSOLETI :
  • 221520Z 18004KT 150V210 9999 FEW023 BKN035 14/11 Q1023 NOSIG
  • 221450Z 18004KT 9999 SCT018 BKN038 14/11 Q1023 NOSIG
  • 221420Z 21003KT 170V250 9999 SCT017 SCT038 15/10 Q1023 NOSIG
  • 221350Z 24004KT 200V260 9999 SCT017 BKN035 14/11 Q1023 NOSIG
  • 221320Z 22005KT 180V260 9999 FEW016 BKN032 14/10 Q1023 NOSIG

TAF TAF EDDG
Valido dal 22 a 12 ore il 23 a 12 ore UTC


221100Z 2212/2312 22007KT 9999 BKN030
BECMG 2214/2216 VRB02KT
BECMG 2217/2220 2500 BR
BECMG 2220/2223 0800 FG
PROB30
TEMPO 2222/2305 0400 FG
BECMG 2304/2307 2000 BR
BECMG 2307/2310 08005KT 9999



MetMap, La meteo Aeronautica in un colpo d'occhio ! - Copyright ORBIFLY Dicembre 2007 - Disclaimer

ORBIFLY MET'MAP TEAM :

Programmazione e sviluppo : Alexandra Zaïnal
Concezione e sviluppo : Baudouin d'Aumeries
Co-Programmazione e sviluppo : Marc-Olivier Méhu
Supporto tecnico e logistico : Manuel Goepfert
Aiuto per la traduzione : Arnaldo La Scala

Contatto : metmap@orbifly.com




FONTI E CREDITI :

   NOAA